sensor_id;sensor_type;location;lat;lon;timestamp;temperature;humidity
80412;SHT30;69749;42.684;23.360;2023-12-20T00:01:03;4.25;67.01
80412;SHT30;69749;42.684;23.360;2023-12-20T00:03:28;4.23;67.00
80412;SHT30;69749;42.684;23.360;2023-12-20T00:05:53;4.22;67.01
80412;SHT30;69749;42.684;23.360;2023-12-20T00:08:19;4.21;67.03
80412;SHT30;69749;42.684;23.360;2023-12-20T00:10:45;4.12;67.06
80412;SHT30;69749;42.684;23.360;2023-12-20T00:13:11;4.06;67.30
80412;SHT30;69749;42.684;23.360;2023-12-20T00:15:36;4.04;67.62
80412;SHT30;69749;42.684;23.360;2023-12-20T00:18:02;4.09;67.75
80412;SHT30;69749;42.684;23.360;2023-12-20T00:20:28;4.13;67.75
80412;SHT30;69749;42.684;23.360;2023-12-20T00:22:56;3.77;68.59
80412;SHT30;69749;42.684;23.360;2023-12-20T00:25:23;3.92;68.16
80412;SHT30;69749;42.684;23.360;2023-12-20T00:27:48;4.08;67.70
80412;SHT30;69749;42.684;23.360;2023-12-20T00:30:14;4.18;67.21
80412;SHT30;69749;42.684;23.360;2023-12-20T00:32:39;4.18;67.25
80412;SHT30;69749;42.684;23.360;2023-12-20T00:35:14;4.21;67.36
80412;SHT30;69749;42.684;23.360;2023-12-20T00:37:41;4.25;67.35
80412;SHT30;69749;42.684;23.360;2023-12-20T00:40:07;4.31;67.03
80412;SHT30;69749;42.684;23.360;2023-12-20T00:42:33;4.29;66.75
80412;SHT30;69749;42.684;23.360;2023-12-20T00:44:59;4.25;66.53
80412;SHT30;69749;42.684;23.360;2023-12-20T00:47:25;4.22;66.51
80412;SHT30;69749;42.684;23.360;2023-12-20T00:49:50;4.19;66.59
80412;SHT30;69749;42.684;23.360;2023-12-20T00:52:16;4.21;66.33
80412;SHT30;69749;42.684;23.360;2023-12-20T00:54:43;4.11;65.93
80412;SHT30;69749;42.684;23.360;2023-12-20T00:57:09;4.04;65.70
80412;SHT30;69749;42.684;23.360;2023-12-20T00:59:34;3.92;66.04
80412;SHT30;69749;42.684;23.360;2023-12-20T01:02:00;3.92;66.07
80412;SHT30;69749;42.684;23.360;2023-12-20T01:04:25;3.80;65.96
80412;SHT30;69749;42.684;23.360;2023-12-20T01:06:52;3.85;65.99
80412;SHT30;69749;42.684;23.360;2023-12-20T01:09:17;3.90;66.09
80412;SHT30;69749;42.684;23.360;2023-12-20T01:11:43;3.99;65.76
80412;SHT30;69749;42.684;23.360;2023-12-20T01:14:09;4.01;66.11
80412;SHT30;69749;42.684;23.360;2023-12-20T01:16:34;3.84;66.58
80412;SHT30;69749;42.684;23.360;2023-12-20T01:19:00;3.73;66.30
80412;SHT30;69749;42.684;23.360;2023-12-20T01:21:25;3.75;66.14
80412;SHT30;69749;42.684;23.360;2023-12-20T01:23:51;3.83;65.82
80412;SHT30;69749;42.684;23.360;2023-12-20T01:26:16;3.91;65.88
80412;SHT30;69749;42.684;23.360;2023-12-20T01:28:42;3.90;65.97
80412;SHT30;69749;42.684;23.360;2023-12-20T01:31:08;3.87;66.21
80412;SHT30;69749;42.684;23.360;2023-12-20T01:33:34;3.87;66.18
80412;SHT30;69749;42.684;23.360;2023-12-20T01:35:59;3.84;65.33
80412;SHT30;69749;42.684;23.360;2023-12-20T01:38:25;3.74;65.30
80412;SHT30;69749;42.684;23.360;2023-12-20T01:40:50;3.75;64.80
80412;SHT30;69749;42.684;23.360;2023-12-20T01:43:16;3.59;64.55
80412;SHT30;69749;42.684;23.360;2023-12-20T01:45:41;3.56;64.44
80412;SHT30;69749;42.684;23.360;2023-12-20T01:48:08;3.49;64.39
80412;SHT30;69749;42.684;23.360;2023-12-20T01:50:36;3.53;64.19
80412;SHT30;69749;42.684;23.360;2023-12-20T01:53:02;3.42;63.83
80412;SHT30;69749;42.684;23.360;2023-12-20T01:55:31;3.42;63.71
80412;SHT30;69749;42.684;23.360;2023-12-20T01:57:59;3.44;63.77
80412;SHT30;69749;42.684;23.360;2023-12-20T02:00:26;3.47;63.99
80412;SHT30;69749;42.684;23.360;2023-12-20T02:02:54;3.54;63.88
80412;SHT30;69749;42.684;23.360;2023-12-20T02:05:23;3.60;63.66
80412;SHT30;69749;42.684;23.360;2023-12-20T02:07:50;3.56;63.81
80412;SHT30;69749;42.684;23.360;2023-12-20T02:10:16;3.52;63.75
80412;SHT30;69749;42.684;23.360;2023-12-20T02:12:41;3.43;63.13
80412;SHT30;69749;42.684;23.360;2023-12-20T02:15:07;3.42;63.23
80412;SHT30;69749;42.684;23.360;2023-12-20T02:17:33;3.46;62.25
80412;SHT30;69749;42.684;23.360;2023-12-20T02:19:59;3.43;61.40
80412;SHT30;69749;42.684;23.360;2023-12-20T02:22:24;3.42;61.13
80412;SHT30;69749;42.684;23.360;2023-12-20T02:24:50;3.36;61.03
80412;SHT30;69749;42.684;23.360;2023-12-20T02:27:18;3.20;60.94
80412;SHT30;69749;42.684;23.360;2023-12-20T02:29:44;3.05;61.36
80412;SHT30;69749;42.684;23.360;2023-12-20T02:32:10;3.03;61.82
80412;SHT30;69749;42.684;23.360;2023-12-20T02:34:36;2.94;62.13
80412;SHT30;69749;42.684;23.360;2023-12-20T02:37:01;2.82;62.06
80412;SHT30;69749;42.684;23.360;2023-12-20T02:39:27;2.71;62.81
80412;SHT30;69749;42.684;23.360;2023-12-20T02:41:52;2.64;62.79
80412;SHT30;69749;42.684;23.360;2023-12-20T02:44:18;2.60;63.14
80412;SHT30;69749;42.684;23.360;2023-12-20T02:46:43;2.54;63.39
80412;SHT30;69749;42.684;23.360;2023-12-20T02:49:09;2.61;63.31
80412;SHT30;69749;42.684;23.360;2023-12-20T02:51:34;2.67;63.41
80412;SHT30;69749;42.684;23.360;2023-12-20T02:54:03;2.70;63.45
80412;SHT30;69749;42.684;23.360;2023-12-20T02:56:28;2.64;63.89
80412;SHT30;69749;42.684;23.360;2023-12-20T02:58:54;2.67;64.10
80412;SHT30;69749;42.684;23.360;2023-12-20T03:01:19;2.73;63.96
80412;SHT30;69749;42.684;23.360;2023-12-20T03:03:45;2.82;63.52
80412;SHT30;69749;42.684;23.360;2023-12-20T03:06:10;2.87;63.27
80412;SHT30;69749;42.684;23.360;2023-12-20T03:08:36;2.82;63.28
80412;SHT30;69749;42.684;23.360;2023-12-20T03:11:02;2.88;63.18
80412;SHT30;69749;42.684;23.360;2023-12-20T03:13:27;2.92;63.16
80412;SHT30;69749;42.684;23.360;2023-12-20T03:15:53;2.94;63.32
80412;SHT30;69749;42.684;23.360;2023-12-20T03:18:18;2.92;63.26
80412;SHT30;69749;42.684;23.360;2023-12-20T03:20:44;2.85;63.54
80412;SHT30;69749;42.684;23.360;2023-12-20T03:23:09;2.82;63.71
80412;SHT30;69749;42.684;23.360;2023-12-20T03:25:35;2.68;64.06
80412;SHT30;69749;42.684;23.360;2023-12-20T03:28:00;2.75;64.17
80412;SHT30;69749;42.684;23.360;2023-12-20T03:30:26;2.78;63.89
80412;SHT30;69749;42.684;23.360;2023-12-20T03:32:51;2.62;64.28
80412;SHT30;69749;42.684;23.360;2023-12-20T03:35:17;2.67;64.50
80412;SHT30;69749;42.684;23.360;2023-12-20T03:37:42;2.61;64.66
80412;SHT30;69749;42.684;23.360;2023-12-20T03:40:08;2.58;64.65
80412;SHT30;69749;42.684;23.360;2023-12-20T03:42:34;2.45;64.90
80412;SHT30;69749;42.684;23.360;2023-12-20T03:44:59;2.43;65.35
80412;SHT30;69749;42.684;23.360;2023-12-20T03:47:24;2.43;65.11
80412;SHT30;69749;42.684;23.360;2023-12-20T03:49:50;2.38;66.32
80412;SHT30;69749;42.684;23.360;2023-12-20T03:52:15;2.45;66.41
80412;SHT30;69749;42.684;23.360;2023-12-20T03:54:41;2.41;65.90
80412;SHT30;69749;42.684;23.360;2023-12-20T03:57:09;2.38;66.73
80412;SHT30;69749;42.684;23.360;2023-12-20T03:59:36;2.37;67.34
80412;SHT30;69749;42.684;23.360;2023-12-20T04:02:01;2.32;67.28
80412;SHT30;69749;42.684;23.360;2023-12-20T04:04:27;2.30;67.29
80412;SHT30;69749;42.684;23.360;2023-12-20T04:06:53;2.27;67.35
80412;SHT30;69749;42.684;23.360;2023-12-20T04:09:18;2.32;67.45
80412;SHT30;69749;42.684;23.360;2023-12-20T04:11:44;2.33;67.25
80412;SHT30;69749;42.684;23.360;2023-12-20T04:14:09;2.38;66.40
80412;SHT30;69749;42.684;23.360;2023-12-20T04:16:35;2.38;65.43
80412;SHT30;69749;42.684;23.360;2023-12-20T04:19:01;2.45;65.13
80412;SHT30;69749;42.684;23.360;2023-12-20T04:21:26;2.45;64.89
80412;SHT30;69749;42.684;23.360;2023-12-20T04:23:52;2.50;65.18
80412;SHT30;69749;42.684;23.360;2023-12-20T04:26:17;2.51;64.14
80412;SHT30;69749;42.684;23.360;2023-12-20T04:28:43;2.47;63.80
80412;SHT30;69749;42.684;23.360;2023-12-20T04:31:08;2.38;63.79
80412;SHT30;69749;42.684;23.360;2023-12-20T04:33:34;2.32;64.34
80412;SHT30;69749;42.684;23.360;2023-12-20T04:35:59;2.36;64.15
80412;SHT30;69749;42.684;23.360;2023-12-20T04:38:25;2.26;64.32
80412;SHT30;69749;42.684;23.360;2023-12-20T04:40:51;2.09;64.59
80412;SHT30;69749;42.684;23.360;2023-12-20T04:43:17;1.74;65.90
80412;SHT30;69749;42.684;23.360;2023-12-20T04:45:42;1.68;66.18
80412;SHT30;69749;42.684;23.360;2023-12-20T04:48:08;1.75;66.20
80412;SHT30;69749;42.684;23.360;2023-12-20T04:50:33;1.86;65.81
80412;SHT30;69749;42.684;23.360;2023-12-20T04:52:59;1.85;65.55
80412;SHT30;69749;42.684;23.360;2023-12-20T04:55:25;1.69;65.87
80412;SHT30;69749;42.684;23.360;2023-12-20T04:57:50;1.79;66.05
80412;SHT30;69749;42.684;23.360;2023-12-20T05:00:16;1.87;65.90
80412;SHT30;69749;42.684;23.360;2023-12-20T05:02:41;1.81;66.02
80412;SHT30;69749;42.684;23.360;2023-12-20T05:05:07;1.74;66.23
80412;SHT30;69749;42.684;23.360;2023-12-20T05:07:33;1.85;65.94
80412;SHT30;69749;42.684;23.360;2023-12-20T05:09:59;1.74;66.02
80412;SHT30;69749;42.684;23.360;2023-12-20T05:12:24;1.44;67.29
80412;SHT30;69749;42.684;23.360;2023-12-20T05:14:51;1.47;67.22
80412;SHT30;69749;42.684;23.360;2023-12-20T05:17:17;1.58;66.85
80412;SHT30;69749;42.684;23.360;2023-12-20T05:19:42;1.69;66.36
80412;SHT30;69749;42.684;23.360;2023-12-20T05:22:08;1.71;66.51
80412;SHT30;69749;42.684;23.360;2023-12-20T05:24:33;1.81;66.30
80412;SHT30;69749;42.684;23.360;2023-12-20T05:26:59;1.78;66.17
80412;SHT30;69749;42.684;23.360;2023-12-20T05:29:24;1.83;66.19
80412;SHT30;69749;42.684;23.360;2023-12-20T05:31:50;1.95;65.99
80412;SHT30;69749;42.684;23.360;2023-12-20T05:34:15;2.02;65.54
80412;SHT30;69749;42.684;23.360;2023-12-20T05:36:41;1.99;65.66
80412;SHT30;69749;42.684;23.360;2023-12-20T05:39:06;1.95;65.85
80412;SHT30;69749;42.684;23.360;2023-12-20T05:41:33;1.93;66.10
80412;SHT30;69749;42.684;23.360;2023-12-20T05:43:59;1.96;66.03
80412;SHT30;69749;42.684;23.360;2023-12-20T05:46:25;1.99;65.79
80412;SHT30;69749;42.684;23.360;2023-12-20T05:48:50;1.92;66.45
80412;SHT30;69749;42.684;23.360;2023-12-20T05:51:17;2.01;66.13
80412;SHT30;69749;42.684;23.360;2023-12-20T05:53:43;1.99;66.29
80412;SHT30;69749;42.684;23.360;2023-12-20T05:56:10;1.93;66.61
80412;SHT30;69749;42.684;23.360;2023-12-20T05:58:35;2.01;66.57
80412;SHT30;69749;42.684;23.360;2023-12-20T06:01:03;1.93;66.78
80412;SHT30;69749;42.684;23.360;2023-12-20T06:03:29;1.86;67.29
80412;SHT30;69749;42.684;23.360;2023-12-20T06:05:54;1.95;67.17
80412;SHT30;69749;42.684;23.360;2023-12-20T06:08:20;2.02;66.88
80412;SHT30;69749;42.684;23.360;2023-12-20T06:10:45;1.99;66.97
80412;SHT30;69749;42.684;23.360;2023-12-20T06:13:11;2.10;66.85
80412;SHT30;69749;42.684;23.360;2023-12-20T06:15:38;2.15;66.87
80412;SHT30;69749;42.684;23.360;2023-12-20T06:18:04;2.17;66.96
80412;SHT30;69749;42.684;23.360;2023-12-20T06:20:29;2.22;67.09
80412;SHT30;69749;42.684;23.360;2023-12-20T06:22:55;2.15;66.88
80412;SHT30;69749;42.684;23.360;2023-12-20T06:25:20;1.92;67.88
80412;SHT30;69749;42.684;23.360;2023-12-20T06:27:46;1.86;68.10
80412;SHT30;69749;42.684;23.360;2023-12-20T06:30:11;1.93;68.09
80412;SHT30;69749;42.684;23.360;2023-12-20T06:32:37;2.12;67.62
80412;SHT30;69749;42.684;23.360;2023-12-20T06:35:05;2.23;66.90
80412;SHT30;69749;42.684;23.360;2023-12-20T06:37:30;2.34;66.60
80412;SHT30;69749;42.684;23.360;2023-12-20T06:39:56;2.30;66.80
80412;SHT30;69749;42.684;23.360;2023-12-20T06:42:22;2.37;66.68
80412;SHT30;69749;42.684;23.360;2023-12-20T06:44:48;2.40;66.57
80412;SHT30;69749;42.684;23.360;2023-12-20T06:47:13;2.47;66.54
80412;SHT30;69749;42.684;23.360;2023-12-20T06:49:40;2.43;66.44
80412;SHT30;69749;42.684;23.360;2023-12-20T06:52:05;2.51;66.21
80412;SHT30;69749;42.684;23.360;2023-12-20T06:54:31;2.54;66.39
80412;SHT30;69749;42.684;23.360;2023-12-20T06:56:56;2.62;66.40
80412;SHT30;69749;42.684;23.360;2023-12-20T06:59:22;2.58;66.36
80412;SHT30;69749;42.684;23.360;2023-12-20T07:01:48;2.68;66.21
80412;SHT30;69749;42.684;23.360;2023-12-20T07:04:14;2.82;65.95
80412;SHT30;69749;42.684;23.360;2023-12-20T07:06:39;2.94;65.58
80412;SHT30;69749;42.684;23.360;2023-12-20T07:09:05;2.99;65.40
80412;SHT30;69749;42.684;23.360;2023-12-20T07:11:31;3.12;65.02
80412;SHT30;69749;42.684;23.360;2023-12-20T07:13:57;3.23;64.54
80412;SHT30;69749;42.684;23.360;2023-12-20T07:16:22;3.39;64.35
80412;SHT30;69749;42.684;23.360;2023-12-20T07:18:48;3.46;63.85
80412;SHT30;69749;42.684;23.360;2023-12-20T07:21:13;3.44;63.73
80412;SHT30;69749;42.684;23.360;2023-12-20T07:23:39;3.43;63.80
80412;SHT30;69749;42.684;23.360;2023-12-20T07:26:04;3.49;63.96
80412;SHT30;69749;42.684;23.360;2023-12-20T07:28:30;3.47;63.82
80412;SHT30;69749;42.684;23.360;2023-12-20T07:30:55;3.46;63.87
80412;SHT30;69749;42.684;23.360;2023-12-20T07:33:21;3.46;64.20
80412;SHT30;69749;42.684;23.360;2023-12-20T07:35:47;3.52;64.00
80412;SHT30;69749;42.684;23.360;2023-12-20T07:38:12;3.64;63.84
80412;SHT30;69749;42.684;23.360;2023-12-20T07:40:38;3.64;63.90
80412;SHT30;69749;42.684;23.360;2023-12-20T07:43:04;3.63;63.92
80412;SHT30;69749;42.684;23.360;2023-12-20T07:45:30;3.50;64.25
80412;SHT30;69749;42.684;23.360;2023-12-20T07:47:55;3.47;64.30
80412;SHT30;69749;42.684;23.360;2023-12-20T07:50:21;3.53;64.11
80412;SHT30;69749;42.684;23.360;2023-12-20T07:52:46;3.62;64.25
80412;SHT30;69749;42.684;23.360;2023-12-20T07:55:12;3.63;64.29
80412;SHT30;69749;42.684;23.360;2023-12-20T07:57:37;3.70;64.27
80412;SHT30;69749;42.684;23.360;2023-12-20T08:00:03;3.75;64.17
80412;SHT30;69749;42.684;23.360;2023-12-20T08:02:29;3.78;63.63
80412;SHT30;69749;42.684;23.360;2023-12-20T08:04:54;3.69;64.03
80412;SHT30;69749;42.684;23.360;2023-12-20T08:07:20;3.57;64.42
80412;SHT30;69749;42.684;23.360;2023-12-20T08:09:45;3.78;64.49
80412;SHT30;69749;42.684;23.360;2023-12-20T08:12:11;4.13;63.97
80412;SHT30;69749;42.684;23.360;2023-12-20T08:14:37;4.41;63.34
80412;SHT30;69749;42.684;23.360;2023-12-20T08:17:02;5.52;60.53
80412;SHT30;69749;42.684;23.360;2023-12-20T08:19:28;7.44;56.17
80412;SHT30;69749;42.684;23.360;2023-12-20T08:21:53;7.31;54.82
80412;SHT30;69749;42.684;23.360;2023-12-20T08:24:19;7.04;54.74
80412;SHT30;69749;42.684;23.360;2023-12-20T08:26:44;6.44;55.87
80412;SHT30;69749;42.684;23.360;2023-12-20T08:29:13;6.10;56.82
80412;SHT30;69749;42.684;23.360;2023-12-20T08:31:38;6.06;57.67
80412;SHT30;69749;42.684;23.360;2023-12-20T08:34:04;5.79;58.39
80412;SHT30;69749;42.684;23.360;2023-12-20T08:36:29;5.85;58.43
80412;SHT30;69749;42.684;23.360;2023-12-20T08:38:55;5.79;58.50
80412;SHT30;69749;42.684;23.360;2023-12-20T08:41:20;5.56;59.15
80412;SHT30;69749;42.684;23.360;2023-12-20T08:43:46;5.49;59.35
80412;SHT30;69749;42.684;23.360;2023-12-20T08:46:13;5.48;59.63
80412;SHT30;69749;42.684;23.360;2023-12-20T08:48:38;5.42;59.83
80412;SHT30;69749;42.684;23.360;2023-12-20T08:51:04;5.39;59.89
80412;SHT30;69749;42.684;23.360;2023-12-20T08:53:32;5.42;59.94
80412;SHT30;69749;42.684;23.360;2023-12-20T08:55:58;5.46;60.10
80412;SHT30;69749;42.684;23.360;2023-12-20T08:58:26;5.45;59.97
80412;SHT30;69749;42.684;23.360;2023-12-20T09:00:52;5.43;60.16
80412;SHT30;69749;42.684;23.360;2023-12-20T09:03:17;5.46;60.44
80412;SHT30;69749;42.684;23.360;2023-12-20T09:05:43;5.43;60.44
80412;SHT30;69749;42.684;23.360;2023-12-20T09:08:08;5.24;60.92
80412;SHT30;69749;42.684;23.360;2023-12-20T09:10:36;4.90;62.61
80412;SHT30;69749;42.684;23.360;2023-12-20T09:13:02;4.64;63.14
80412;SHT30;69749;42.684;23.360;2023-12-20T09:15:29;4.73;63.08
80412;SHT30;69749;42.684;23.360;2023-12-20T09:17:55;4.71;63.02
80412;SHT30;69749;42.684;23.360;2023-12-20T09:20:21;4.84;63.24
80412;SHT30;69749;42.684;23.360;2023-12-20T09:22:48;5.01;62.85
80412;SHT30;69749;42.684;23.360;2023-12-20T09:25:14;5.01;62.38
80412;SHT30;69749;42.684;23.360;2023-12-20T09:27:41;5.14;62.21
80412;SHT30;69749;42.684;23.360;2023-12-20T09:30:07;4.95;62.67
80412;SHT30;69749;42.684;23.360;2023-12-20T09:32:32;4.69;63.94
80412;SHT30;69749;42.684;23.360;2023-12-20T09:34:58;4.76;64.07
80412;SHT30;69749;42.684;23.360;2023-12-20T09:37:27;4.83;63.76
80412;SHT30;69749;42.684;23.360;2023-12-20T09:39:53;4.57;64.44
80412;SHT30;69749;42.684;23.360;2023-12-20T09:42:25;4.70;64.33
80412;SHT30;69749;42.684;23.360;2023-12-20T09:44:54;4.88;63.94
80412;SHT30;69749;42.684;23.360;2023-12-20T09:47:23;5.07;63.44
80412;SHT30;69749;42.684;23.360;2023-12-20T09:49:50;5.10;63.22
80412;SHT30;69749;42.684;23.360;2023-12-20T09:52:18;4.85;63.51
80412;SHT30;69749;42.684;23.360;2023-12-20T09:54:44;4.87;63.82
80412;SHT30;69749;42.684;23.360;2023-12-20T09:57:12;5.10;63.58
80412;SHT30;69749;42.684;23.360;2023-12-20T09:59:38;5.31;62.83
80412;SHT30;69749;42.684;23.360;2023-12-20T10:02:05;5.25;62.51
80412;SHT30;69749;42.684;23.360;2023-12-20T10:04:32;4.76;64.74
80412;SHT30;69749;42.684;23.360;2023-12-20T10:07:02;5.10;63.89
80412;SHT30;69749;42.684;23.360;2023-12-20T10:09:31;5.48;63.53
80412;SHT30;69749;42.684;23.360;2023-12-20T10:11:57;5.58;62.22
80412;SHT30;69749;42.684;23.360;2023-12-20T10:14:23;5.69;62.50
80412;SHT30;69749;42.684;23.360;2023-12-20T10:16:49;5.80;62.25
80412;SHT30;69749;42.684;23.360;2023-12-20T10:19:19;5.90;60.96
80412;SHT30;69749;42.684;23.360;2023-12-20T10:21:44;6.03;60.39
80412;SHT30;69749;42.684;23.360;2023-12-20T10:24:17;6.28;60.19
80412;SHT30;69749;42.684;23.360;2023-12-20T10:26:42;6.92;59.75
80412;SHT30;69749;42.684;23.360;2023-12-20T10:29:08;7.50;58.53
80412;SHT30;69749;42.684;23.360;2023-12-20T10:44:29;8.58;54.17
80412;SHT30;69749;42.684;23.360;2023-12-20T10:46:55;8.54;54.74
80412;SHT30;69749;42.684;23.360;2023-12-20T10:49:24;8.48;55.22
80412;SHT30;69749;42.684;23.360;2023-12-20T10:51:52;8.29;55.68
80412;SHT30;69749;42.684;23.360;2023-12-20T10:54:19;8.20;54.63
80412;SHT30;69749;42.684;23.360;2023-12-20T10:56:45;8.06;55.18
80412;SHT30;69749;42.684;23.360;2023-12-20T10:59:11;8.10;55.00
80412;SHT30;69749;42.684;23.360;2023-12-20T11:01:38;8.46;54.17
80412;SHT30;69749;42.684;23.360;2023-12-20T11:04:07;8.75;53.15
80412;SHT30;69749;42.684;23.360;2023-12-20T11:06:36;8.84;53.01
80412;SHT30;69749;42.684;23.360;2023-12-20T11:09:24;8.96;52.86
80412;SHT30;69749;42.684;23.360;2023-12-20T11:12:01;9.08;52.80
80412;SHT30;69749;42.684;23.360;2023-12-20T11:14:46;9.30;51.85
80412;SHT30;69749;42.684;23.360;2023-12-20T11:17:12;9.57;51.11
80412;SHT30;69749;42.684;23.360;2023-12-20T11:22:27;9.70;51.06
80412;SHT30;69749;42.684;23.360;2023-12-20T11:24:58;9.57;50.60
80412;SHT30;69749;42.684;23.360;2023-12-20T11:27:24;8.96;52.36
80412;SHT30;69749;42.684;23.360;2023-12-20T11:29:54;8.20;54.99
80412;SHT30;69749;42.684;23.360;2023-12-20T11:37:37;8.78;53.75
80412;SHT30;69749;42.684;23.360;2023-12-20T11:40:07;8.89;53.35
80412;SHT30;69749;42.684;23.360;2023-12-20T11:43:00;8.87;53.31
80412;SHT30;69749;42.684;23.360;2023-12-20T11:45:26;8.71;53.67
80412;SHT30;69749;42.684;23.360;2023-12-20T11:47:52;8.32;54.95
80412;SHT30;69749;42.684;23.360;2023-12-20T11:50:22;7.34;58.02
80412;SHT30;69749;42.684;23.360;2023-12-20T11:52:48;7.13;58.82
80412;SHT30;69749;42.684;23.360;2023-12-20T11:55:14;6.79;59.96
80412;SHT30;69749;42.684;23.360;2023-12-20T11:57:39;6.95;59.79
80412;SHT30;69749;42.684;23.360;2023-12-20T12:00:06;6.69;60.12
80412;SHT30;69749;42.684;23.360;2023-12-20T12:02:32;6.80;60.06
80412;SHT30;69749;42.684;23.360;2023-12-20T12:04:57;6.67;60.50
80412;SHT30;69749;42.684;23.360;2023-12-20T12:07:24;6.79;60.33
80412;SHT30;69749;42.684;23.360;2023-12-20T12:09:50;6.22;61.92
80412;SHT30;69749;42.684;23.360;2023-12-20T12:12:16;5.62;64.41
80412;SHT30;69749;42.684;23.360;2023-12-20T12:14:44;5.70;64.22
80412;SHT30;69749;42.684;23.360;2023-12-20T12:17:13;5.76;64.32
80412;SHT30;69749;42.684;23.360;2023-12-20T12:19:40;6.22;63.29
80412;SHT30;69749;42.684;23.360;2023-12-20T12:24:34;5.97;63.61
80412;SHT30;69749;42.684;23.360;2023-12-20T12:26:59;6.14;63.53
80412;SHT30;69749;42.684;23.360;2023-12-20T12:29:25;6.39;63.08
80412;SHT30;69749;42.684;23.360;2023-12-20T12:31:51;6.51;62.59
80412;SHT30;69749;42.684;23.360;2023-12-20T12:34:17;6.62;62.30
80412;SHT30;69749;42.684;23.360;2023-12-20T12:36:43;6.73;61.85
80412;SHT30;69749;42.684;23.360;2023-12-20T12:39:12;6.89;61.29
80412;SHT30;69749;42.684;23.360;2023-12-20T12:41:37;6.99;60.74
80412;SHT30;69749;42.684;23.360;2023-12-20T12:44:03;7.07;60.59
80412;SHT30;69749;42.684;23.360;2023-12-20T12:46:29;7.04;60.42
80412;SHT30;69749;42.684;23.360;2023-12-20T12:48:54;6.90;60.88
80412;SHT30;69749;42.684;23.360;2023-12-20T12:51:20;6.55;61.61
80412;SHT30;69749;42.684;23.360;2023-12-20T12:53:45;6.32;62.58
80412;SHT30;69749;42.684;23.360;2023-12-20T12:56:12;5.96;63.49
80412;SHT30;69749;42.684;23.360;2023-12-20T12:58:38;5.80;64.62
80412;SHT30;69749;42.684;23.360;2023-12-20T13:01:03;6.00;64.36
80412;SHT30;69749;42.684;23.360;2023-12-20T13:03:29;6.14;63.75
80412;SHT30;69749;42.684;23.360;2023-12-20T13:05:54;6.20;63.55
80412;SHT30;69749;42.684;23.360;2023-12-20T13:08:20;5.80;64.56
80412;SHT30;69749;42.684;23.360;2023-12-20T13:10:46;5.93;64.20
80412;SHT30;69749;42.684;23.360;2023-12-20T13:13:11;6.04;63.76
80412;SHT30;69749;42.684;23.360;2023-12-20T13:15:37;6.01;63.65
80412;SHT30;69749;42.684;23.360;2023-12-20T13:18:02;6.01;63.67
80412;SHT30;69749;42.684;23.360;2023-12-20T13:20:29;6.09;63.57
80412;SHT30;69749;42.684;23.360;2023-12-20T13:22:55;5.81;64.39
80412;SHT30;69749;42.684;23.360;2023-12-20T13:25:20;5.74;64.96
80412;SHT30;69749;42.684;23.360;2023-12-20T13:27:46;5.83;64.79
80412;SHT30;69749;42.684;23.360;2023-12-20T13:30:12;5.58;65.36
80412;SHT30;69749;42.684;23.360;2023-12-20T13:32:37;5.73;65.08
80412;SHT30;69749;42.684;23.360;2023-12-20T13:35:03;5.60;65.52
80412;SHT30;69749;42.684;23.360;2023-12-20T13:37:29;5.72;64.98
80412;SHT30;69749;42.684;23.360;2023-12-20T13:39:58;5.67;65.08
80412;SHT30;69749;42.684;23.360;2023-12-20T13:42:23;5.74;64.90
80412;SHT30;69749;42.684;23.360;2023-12-20T13:44:49;5.41;65.96
80412;SHT30;69749;42.684;23.360;2023-12-20T13:47:14;5.17;66.43
80412;SHT30;69749;42.684;23.360;2023-12-20T13:49:40;4.73;68.64
80412;SHT30;69749;42.684;23.360;2023-12-20T13:52:05;4.71;70.31
80412;SHT30;69749;42.684;23.360;2023-12-20T13:54:34;4.84;68.41
80412;SHT30;69749;42.684;23.360;2023-12-20T13:56:59;4.77;68.78
80412;SHT30;69749;42.684;23.360;2023-12-20T13:59:25;4.98;68.35
80412;SHT30;69749;42.684;23.360;2023-12-20T14:01:51;5.01;67.94
80412;SHT30;69749;42.684;23.360;2023-12-20T14:04:16;4.88;67.91
80412;SHT30;69749;42.684;23.360;2023-12-20T14:06:42;4.97;67.85
80412;SHT30;69749;42.684;23.360;2023-12-20T14:09:07;5.00;67.88
80412;SHT30;69749;42.684;23.360;2023-12-20T14:11:33;5.10;67.81
80412;SHT30;69749;42.684;23.360;2023-12-20T14:13:58;5.20;67.52
80412;SHT30;69749;42.684;23.360;2023-12-20T14:16:24;5.25;67.47
80412;SHT30;69749;42.684;23.360;2023-12-20T14:18:50;5.25;67.20
80412;SHT30;69749;42.684;23.360;2023-12-20T14:21:17;5.10;67.75
80412;SHT30;69749;42.684;23.360;2023-12-20T14:23:44;5.14;67.66
80412;SHT30;69749;42.684;23.360;2023-12-20T14:26:11;5.11;68.32
80412;SHT30;69749;42.684;23.360;2023-12-20T14:28:40;5.17;68.05
80412;SHT30;69749;42.684;23.360;2023-12-20T14:31:06;5.25;67.87
80412;SHT30;69749;42.684;23.360;2023-12-20T14:33:31;5.30;67.57
80412;SHT30;69749;42.684;23.360;2023-12-20T14:35:57;5.28;67.22
80412;SHT30;69749;42.684;23.360;2023-12-20T14:38:22;5.25;67.54
80412;SHT30;69749;42.684;23.360;2023-12-20T14:40:48;5.17;67.38
80412;SHT30;69749;42.684;23.360;2023-12-20T14:43:13;5.15;67.48
80412;SHT30;69749;42.684;23.360;2023-12-20T14:45:39;5.01;67.91
80412;SHT30;69749;42.684;23.360;2023-12-20T14:48:05;4.95;68.11
80412;SHT30;69749;42.684;23.360;2023-12-20T14:50:30;4.87;68.44
80412;SHT30;69749;42.684;23.360;2023-12-20T14:52:56;5.00;68.17
80412;SHT30;69749;42.684;23.360;2023-12-20T14:55:21;5.02;68.10
80412;SHT30;69749;42.684;23.360;2023-12-20T14:57:47;5.05;68.10
80412;SHT30;69749;42.684;23.360;2023-12-20T15:00:14;5.07;68.02
80412;SHT30;69749;42.684;23.360;2023-12-20T15:02:42;4.83;69.00
80412;SHT30;69749;42.684;23.360;2023-12-20T15:05:07;4.93;68.90
80412;SHT30;69749;42.684;23.360;2023-12-20T15:07:33;5.01;68.70
80412;SHT30;69749;42.684;23.360;2023-12-20T15:09:58;4.97;68.67
80412;SHT30;69749;42.684;23.360;2023-12-20T15:12:24;4.88;68.97
80412;SHT30;69749;42.684;23.360;2023-12-20T15:14:49;4.97;69.01
80412;SHT30;69749;42.684;23.360;2023-12-20T15:17:15;4.94;68.74
80412;SHT30;69749;42.684;23.360;2023-12-20T15:19:41;4.97;68.75
80412;SHT30;69749;42.684;23.360;2023-12-20T15:22:08;4.95;68.66
80412;SHT30;69749;42.684;23.360;2023-12-20T15:24:33;4.97;68.58
80412;SHT30;69749;42.684;23.360;2023-12-20T15:27:05;4.80;69.28
80412;SHT30;69749;42.684;23.360;2023-12-20T15:29:30;4.66;69.68
80412;SHT30;69749;42.684;23.360;2023-12-20T15:31:56;4.63;70.18
80412;SHT30;69749;42.684;23.360;2023-12-20T15:34:22;4.67;69.66
80412;SHT30;69749;42.684;23.360;2023-12-20T15:36:48;4.69;69.75
80412;SHT30;69749;42.684;23.360;2023-12-20T15:39:13;4.80;69.44
80412;SHT30;69749;42.684;23.360;2023-12-20T15:41:42;4.62;69.85
80412;SHT30;69749;42.684;23.360;2023-12-20T15:44:08;4.74;69.58
80412;SHT30;69749;42.684;23.360;2023-12-20T15:46:34;4.70;69.68